Time;durP1;ratioP1;P1;durP2;ratioP2;P2;SDS_P1;SDS_P2;PMS_P1;PMS_P2;Temp;Humidity;BMP_temperature;BMP_pressure;BME280_temperature;BME280_humidity;BME280_pressure;Samples;Min_cycle;Max_cycle;Signal;HPM_P1;HPM_P2
2022/03/06 00:02:17;;;;;;;45.17;23.05;;;;;;;-0.08;69.91;102083.00;4986844;28;20077;-85
2022/03/06 00:04:42;;;;;;;44.58;20.70;;;;;;;-0.06;69.41;102091.75;4988939;28;20041;-86
2022/03/06 00:07:08;;;;;;;42.78;21.65;;;;;;;-0.10;69.84;102089.06;4986233;28;20038;-86
2022/03/06 00:09:33;;;;;;;42.95;22.40;;;;;;;-0.18;70.37;102081.13;4980156;28;20045;-86
2022/03/06 00:11:58;;;;;;;39.50;20.40;;;;;;;-0.15;70.17;102098.63;4974013;28;20070;-87
2022/03/06 00:14:24;;;;;;;43.42;21.58;;;;;;;-0.18;69.99;102098.56;4986098;28;20401;-85
2022/03/06 00:16:51;;;;;;;42.05;22.15;;;;;;;-0.19;70.25;102105.53;4981181;28;20031;-85
2022/03/06 00:19:17;;;;;;;42.00;21.02;;;;;;;-0.28;70.20;102089.72;4981892;28;20092;-86
2022/03/06 00:21:43;;;;;;;44.53;21.13;;;;;;;-0.24;70.63;102098.50;4988973;28;20399;-86
2022/03/06 00:24:08;;;;;;;41.20;21.17;;;;;;;-0.27;70.39;102101.94;4982328;28;20037;-86
2022/03/06 00:26:34;;;;;;;39.97;21.08;;;;;;;-0.31;70.34;102107.97;4972200;28;20329;-87
2022/03/06 00:29:00;;;;;;;45.85;22.92;;;;;;;-0.33;71.02;102097.50;4987874;28;20133;-85
2022/03/06 00:31:25;;;;;;;40.97;21.50;;;;;;;-0.42;70.83;102096.47;4978806;28;20531;-86
2022/03/06 00:33:51;;;;;;;45.55;22.08;;;;;;;-0.35;70.82;102107.06;4983663;28;20097;-86
2022/03/06 00:36:17;;;;;;;43.13;20.80;;;;;;;-0.45;70.78;102092.09;4982239;28;20029;-86
2022/03/06 00:38:42;;;;;;;45.60;21.83;;;;;;;-0.49;71.02;102095.53;4980855;28;20069;-86
2022/03/06 00:41:07;;;;;;;37.95;20.80;;;;;;;-0.46;70.67;102106.03;4985832;28;20030;-86
2022/03/06 00:43:33;;;;;;;41.85;21.02;;;;;;;-0.53;70.73;102104.19;4987667;28;20122;-86
2022/03/06 00:45:58;;;;;;;41.00;20.33;;;;;;;-0.55;71.00;102104.16;4984785;28;20034;-86
2022/03/06 00:48:24;;;;;;;43.72;21.80;;;;;;;-0.54;70.89;102119.00;4984883;28;20480;-86
2022/03/06 00:50:49;;;;;;;42.08;21.02;;;;;;;-0.58;71.32;102122.44;4987747;28;20038;-86
2022/03/06 00:53:15;;;;;;;42.88;21.08;;;;;;;-0.58;71.38;102125.03;4977953;28;20031;-86
2022/03/06 00:55:40;;;;;;;41.38;21.10;;;;;;;-0.63;71.01;102120.56;4983729;28;20030;-86
2022/03/06 00:58:06;;;;;;;44.65;22.00;;;;;;;-0.60;71.34;102129.34;4983417;28;20081;-86
2022/03/06 01:00:41;;;;;;;38.63;20.33;;;;;;;-0.68;71.34;102120.50;4985986;28;20089;-86
2022/03/06 01:03:12;;;;;;;42.83;20.35;;;;;;;-0.65;71.34;102117.94;4973438;28;20081;-86
2022/03/06 01:05:37;;;;;;;40.88;20.67;;;;;;;-0.71;71.04;102112.63;4983770;28;20384;-87
2022/03/06 01:08:04;;;;;;;39.03;20.27;;;;;;;-0.67;71.40;102127.53;4982396;28;20026;-87
2022/03/06 01:10:31;;;;;;;42.88;20.75;;;;;;;-0.76;71.42;102135.19;4972206;28;20090;-86
2022/03/06 01:12:57;;;;;;;39.90;19.83;;;;;;;-0.80;71.47;102125.53;4977127;28;20039;-86
2022/03/06 01:15:22;;;;;;;44.28;21.58;;;;;;;-0.87;71.71;102124.56;4985075;28;20377;-85
2022/03/06 01:17:47;;;;;;;41.15;21.25;;;;;;;-0.80;71.55;102138.59;4985491;28;20045;-86
2022/03/06 01:20:13;;;;;;;40.85;20.85;;;;;;;-0.84;71.64;102142.03;4986015;28;20137;-88
2022/03/06 01:22:38;;;;;;;41.33;19.73;;;;;;;-0.88;71.67;102132.38;4991132;28;20387;-86
2022/03/06 01:25:05;;;;;;;44.33;22.00;;;;;;;-0.82;72.08;102148.19;4990910;28;20341;-86
2022/03/06 01:27:31;;;;;;;42.78;21.33;;;;;;;-0.95;71.92;102123.56;4986826;28;20097;-87
2022/03/06 01:29:56;;;;;;;43.38;21.88;;;;;;;-0.86;71.97;102141.13;4981109;28;20027;-86
2022/03/06 01:32:21;;;;;;;45.70;20.92;;;;;;;-0.88;72.05;102146.34;4991762;28;20041;-86
2022/03/06 01:34:47;;;;;;;48.47;21.50;;;;;;;-0.92;71.96;102138.41;4991362;28;20046;-85
2022/03/06 01:37:12;;;;;;;44.65;21.40;;;;;;;-0.94;72.22;102145.34;4990071;28;20030;-86
2022/03/06 01:39:37;;;;;;;38.70;20.00;;;;;;;-0.96;71.87;102157.50;4985597;28;20442;-86
2022/03/06 01:42:03;;;;;;;43.45;20.45;;;;;;;-1.04;72.00;102147.81;4991318;28;20026;-86
2022/03/06 01:44:28;;;;;;;43.80;21.13;;;;;;;-1.04;72.54;102149.56;4973667;28;20066;-86
2022/03/06 01:46:53;;;;;;;40.17;21.42;;;;;;;-1.08;71.93;102151.22;4986112;28;20030;-87
2022/03/06 01:49:19;;;;;;;44.03;20.48;;;;;;;-1.12;72.08;102149.41;4988897;28;20423;-86
2022/03/06 01:51:44;;;;;;;41.72;21.23;;;;;;;-1.14;72.74;102150.22;4989940;28;20027;-86
2022/03/06 01:54:10;;;;;;;45.17;22.08;;;;;;;-1.15;72.51;102154.56;4989640;28;20050;-86
2022/03/06 01:56:36;;;;;;;42.97;21.63;;;;;;;-1.21;72.79;102150.94;4979888;28;20042;-86
2022/03/06 01:59:04;;;;;;;44.22;21.70;;;;;;;-1.21;72.74;102154.47;4987849;28;20042;-86
2022/03/06 02:01:30;;;;;;;46.10;21.65;;;;;;;-1.29;73.25;102145.63;4990245;28;20117;-87
2022/03/06 02:03:56;;;;;;;40.20;20.75;;;;;;;-1.27;73.52;102151.72;4990823;28;20089;-86
2022/03/06 02:06:22;;;;;;;38.53;19.70;;;;;;;-1.30;73.26;102149.94;4988749;28;20228;-86
2022/03/06 02:08:48;;;;;;;39.28;20.60;;;;;;;-1.33;73.45;102160.34;4990117;28;20066;-86
2022/03/06 02:11:15;;;;;;;43.40;21.20;;;;;;;-1.38;73.49;102151.53;4989853;28;20137;-86
2022/03/06 02:13:44;;;;;;;41.85;20.92;;;;;;;-1.43;73.82;102139.22;4989949;28;20097;-85
2022/03/06 02:16:10;;;;;;;43.58;20.60;;;;;;;-1.40;73.46;102155.84;4989031;28;20448;-85
2022/03/06 02:18:36;;;;;;;43.90;21.75;;;;;;;-1.40;73.66;102160.19;4991091;28;20117;-85
2022/03/06 02:21:12;;;;;;;41.88;21.70;;;;;;;-1.47;73.59;102155.69;4990923;28;20056;-85
2022/03/06 02:23:38;;;;;;;44.00;20.70;;;;;;;-1.45;73.99;102154.88;4990528;28;20077;-85
2022/03/06 02:26:05;;;;;;;42.92;19.95;;;;;;;-1.46;74.01;102160.97;4985615;28;20022;-85
2022/03/06 02:28:31;;;;;;;44.13;20.70;;;;;;;-1.48;73.94;102162.66;4978226;28;20022;-85
2022/03/06 02:30:56;;;;;;;41.47;20.40;;;;;;;-1.53;74.12;102161.69;4988779;28;20089;-85
2022/03/06 02:33:22;;;;;;;47.22;21.92;;;;;;;-1.54;74.60;102159.94;4982704;28;20022;-85
2022/03/06 02:35:48;;;;;;;47.58;21.98;;;;;;;-1.56;74.43;102159.88;4985555;28;20027;-84
2022/03/06 02:38:13;;;;;;;42.95;20.67;;;;;;;-1.67;74.59;102152.66;4985569;28;20041;-84
2022/03/06 02:40:41;;;;;;;40.50;20.92;;;;;;;-1.59;74.45;102169.38;4978712;28;20041;-87
2022/03/06 02:43:08;;;;;;;41.35;20.55;;;;;;;-1.61;74.77;102171.97;4989932;28;20050;-84
2022/03/06 02:45:35;;;;;;;41.70;20.52;;;;;;;-1.63;74.67;102162.31;4985610;28;20039;-85
2022/03/06 02:48:02;;;;;;;41.13;20.40;;;;;;;-1.65;75.00;102164.91;4985110;28;20369;-84
2022/03/06 02:50:31;;;;;;;41.45;21.38;;;;;;;-1.68;74.78;102159.63;4987596;28;20048;-85
2022/03/06 02:52:58;;;;;;;42.85;20.83;;;;;;;-1.72;74.61;102168.25;4976987;28;20026;-85
2022/03/06 02:55:23;;;;;;;42.83;21.15;;;;;;;-1.75;75.42;102170.81;4984167;28;20038;-85
2022/03/06 02:57:49;;;;;;;41.58;21.05;;;;;;;-1.76;75.39;102164.72;4983743;28;20339;-84
2022/03/06 03:00:18;;;;;;;45.67;21.83;;;;;;;-1.75;75.56;102176.03;4979545;28;20448;-85
2022/03/06 03:02:44;;;;;;;42.05;20.40;;;;;;;-1.77;75.09;102172.50;4975331;28;20030;-84
2022/03/06 03:05:11;;;;;;;38.55;20.08;;;;;;;-1.80;75.39;102169.81;4982178;28;20527;-85
2022/03/06 03:07:40;;;;;;;43.08;20.52;;;;;;;-1.83;75.27;102173.25;4981694;28;20096;-85
2022/03/06 03:10:13;;;;;;;40.47;20.30;;;;;;;-1.85;75.51;102179.28;4989645;28;20034;-85
2022/03/06 03:12:38;;;;;;;42.15;21.35;;;;;;;-1.87;75.94;102178.38;4981928;28;20027;-85
2022/03/06 03:15:05;;;;;;;40.40;21.98;;;;;;;-1.93;76.08;102176.50;4982326;28;20022;-85
2022/03/06 03:17:31;;;;;;;45.75;21.77;;;;;;;-1.99;76.32;102163.34;4988803;28;20088;-85
2022/03/06 03:19:56;;;;;;;41.22;21.52;;;;;;;-1.90;76.81;102176.56;4989516;28;20145;-86
2022/03/06 03:22:21;;;;;;;43.50;20.98;;;;;;;-2.03;76.83;102162.38;4988201;28;20032;-85
2022/03/06 03:24:47;;;;;;;45.08;22.20;;;;;;;-1.92;77.02;102182.59;4985961;28;20034;-86
2022/03/06 03:27:12;;;;;;;45.80;20.92;;;;;;;-1.99;77.12;102168.56;4986067;28;20045;-85
2022/03/06 03:29:37;;;;;;;40.65;21.55;;;;;;;-2.05;77.11;102161.50;4981605;28;20039;-86
2022/03/06 03:32:03;;;;;;;46.15;20.60;;;;;;;-1.98;77.30;102175.53;4985766;28;20053;-85
2022/03/06 03:34:28;;;;;;;45.40;21.98;;;;;;;-1.97;77.85;102185.09;4988272;28;20080;-86
2022/03/06 03:36:53;;;;;;;42.92;22.40;;;;;;;-2.06;77.65;102177.09;4987940;28;20033;-87
2022/03/06 03:39:19;;;;;;;45.53;22.35;;;;;;;-2.13;77.87;102177.78;4990161;28;20117;-86
2022/03/06 03:41:44;;;;;;;44.75;20.83;;;;;;;-2.10;77.74;102185.69;4989382;28;20503;-87
2022/03/06 03:44:09;;;;;;;43.92;22.02;;;;;;;-2.11;77.87;102183.94;4988942;28;20038;-86
2022/03/06 03:46:35;;;;;;;42.45;21.98;;;;;;;-2.17;78.66;102181.16;4986042;28;20471;-86
2022/03/06 03:49:00;;;;;;;47.58;22.58;;;;;;;-2.24;78.56;102174.94;4985729;28;20121;-86
2022/03/06 03:51:25;;;;;;;46.70;22.05;;;;;;;-2.26;78.58;102177.53;4988723;28;20023;-86
2022/03/06 03:53:50;;;;;;;41.47;20.75;;;;;;;-2.26;78.52;102187.06;4989139;28;20037;-86
2022/03/06 03:56:16;;;;;;;47.67;22.48;;;;;;;-2.29;79.14;102187.00;4980188;28;20033;-86
2022/03/06 03:58:41;;;;;;;46.45;22.20;;;;;;;-2.35;79.41;102184.25;4977969;28;20031;-86
2022/03/06 04:01:06;;;;;;;49.08;22.30;;;;;;;-2.33;79.92;102185.19;4969795;28;20039;-86
2022/03/06 04:03:32;;;;;;;44.08;21.33;;;;;;;-2.40;79.62;102171.09;4988141;28;20141;-85
2022/03/06 04:05:57;;;;;;;43.78;21.27;;;;;;;-2.38;79.56;102186.78;4987955;28;20029;-86
2022/03/06 04:08:22;;;;;;;43.20;21.05;;;;;;;-2.40;79.79;102193.69;4987726;28;20026;-86
2022/03/06 04:10:48;;;;;;;44.95;21.30;;;;;;;-2.46;79.75;102191.84;4979566;28;20488;-86
2022/03/06 04:13:13;;;;;;;41.58;22.23;;;;;;;-2.46;80.08;102201.38;4986283;28;20111;-86
2022/03/06 04:15:38;;;;;;;42.33;20.92;;;;;;;-2.49;80.73;102193.47;4972983;28;20490;-86
2022/03/06 04:18:04;;;;;;;45.08;20.63;;;;;;;-2.49;81.10;102206.50;4981356;28;20022;-86
2022/03/06 04:20:30;;;;;;;45.88;21.77;;;;;;;-2.54;81.27;102202.06;4984278;28;20066;-86
2022/03/06 04:22:56;;;;;;;49.08;23.23;;;;;;;-2.55;81.17;102205.53;4988428;28;20041;-86
2022/03/06 04:25:21;;;;;;;39.42;20.73;;;;;;;-2.62;81.05;102202.72;4986824;28;20049;-86
2022/03/06 04:27:46;;;;;;;43.40;20.92;;;;;;;-2.62;81.10;102198.38;4986051;28;20073;-87
2022/03/06 04:30:12;;;;;;;45.55;21.27;;;;;;;-2.67;81.72;102196.53;4984856;28;20029;-86
2022/03/06 04:32:37;;;;;;;43.15;20.77;;;;;;;-2.61;81.47;102207.09;4986717;28;20097;-86
2022/03/06 04:35:04;;;;;;;38.20;19.65;;;;;;;-2.62;81.31;102224.44;4986867;28;20026;-86
2022/03/06 04:37:30;;;;;;;42.78;22.33;;;;;;;-2.65;81.38;102224.38;4982926;28;20058;-86
2022/03/06 04:39:55;;;;;;;47.42;21.48;;;;;;;-2.74;81.24;102218.94;4987936;28;20530;-86
2022/03/06 04:42:20;;;;;;;47.53;22.67;;;;;;;-2.77;81.82;102219.72;4979715;28;20480;-86
2022/03/06 04:44:46;;;;;;;39.67;20.83;;;;;;;-2.73;81.77;102233.72;4986478;28;20034;-86
2022/03/06 04:47:11;;;;;;;42.47;20.85;;;;;;;-2.84;82.05;102215.22;4979177;28;20022;-86
2022/03/06 04:49:36;;;;;;;47.53;20.90;;;;;;;-2.77;82.09;102231.88;4985768;28;20065;-86
2022/03/06 04:52:03;;;;;;;46.25;21.50;;;;;;;-2.83;82.17;102227.41;4983565;28;20026;-87
2022/03/06 04:54:28;;;;;;;39.92;21.45;;;;;;;-2.80;82.06;102242.19;4989755;28;20048;-86
2022/03/06 04:56:53;;;;;;;43.47;20.77;;;;;;;-2.80;82.17;102239.59;4990047;28;20042;-86
2022/03/06 04:59:19;;;;;;;43.65;22.23;;;;;;;-2.83;82.40;102240.41;4988726;28;20070;-86
2022/03/06 05:01:44;;;;;;;44.90;21.08;;;;;;;-2.84;82.49;102248.22;4989675;28;20026;-86
2022/03/06 05:04:09;;;;;;;42.83;21.30;;;;;;;-2.92;82.53;102244.53;4990209;28;20037;-86
2022/03/06 05:06:35;;;;;;;41.70;20.77;;;;;;;-2.88;82.29;102255.06;4987686;28;20303;-87
2022/03/06 05:09:00;;;;;;;40.60;19.73;;;;;;;-2.91;82.56;102261.91;4989766;28;20513;-86
2022/03/06 05:11:25;;;;;;;40.00;21.20;;;;;;;-2.93;82.68;102267.06;4990005;28;20050;-87
2022/03/06 05:13:50;;;;;;;41.80;20.45;;;;;;;-2.99;82.62;102255.59;4989717;28;20022;-86
2022/03/06 05:16:16;;;;;;;42.45;20.17;;;;;;;-2.96;82.46;102263.50;4976576;28;20045;-86
2022/03/06 05:18:41;;;;;;;44.95;21.98;;;;;;;-3.03;82.78;102255.50;4989159;28;20018;-87
2022/03/06 05:21:07;;;;;;;40.33;20.02;;;;;;;-2.98;82.70;102266.06;4988915;28;20234;-87
2022/03/06 05:23:32;;;;;;;42.92;20.60;;;;;;;-3.01;83.33;102256.44;4989061;28;20034;-87
2022/03/06 05:25:58;;;;;;;40.63;20.25;;;;;;;-3.01;83.17;102260.75;4986943;28;20038;-86
2022/03/06 05:28:23;;;;;;;37.88;20.48;;;;;;;-3.02;83.14;102270.28;4989556;28;20377;-87
2022/03/06 05:30:50;;;;;;;40.25;20.65;;;;;;;-3.02;83.29;102274.63;4988493;28;20049;-86
2022/03/06 05:33:15;;;;;;;39.38;20.80;;;;;;;-3.03;83.57;102276.34;4976142;28;20113;-85
2022/03/06 05:35:40;;;;;;;41.00;20.83;;;;;;;-3.05;83.14;102280.66;4987668;28;20113;-85
2022/03/06 05:38:06;;;;;;;41.95;21.80;;;;;;;-3.09;83.40;102278.78;4988704;28;20388;-86
2022/03/06 05:40:31;;;;;;;40.72;21.70;;;;;;;-3.12;83.29;102277.81;4987519;28;20045;-86
2022/03/06 05:42:57;;;;;;;40.38;20.27;;;;;;;-3.10;83.59;102291.75;4990912;28;20395;-86
2022/03/06 05:45:22;;;;;;;40.72;20.63;;;;;;;-3.18;83.14;102281.13;4986822;28;20400;-86
2022/03/06 05:47:48;;;;;;;38.40;20.63;;;;;;;-3.18;83.76;102288.06;4978747;28;20114;-86
2022/03/06 05:50:13;;;;;;;41.45;21.58;;;;;;;-3.18;83.62;102295.88;4991860;28;20117;-86
2022/03/06 05:52:39;;;;;;;38.05;19.67;;;;;;;-3.18;83.75;102303.69;4991936;28;20038;-86
2022/03/06 05:55:06;;;;;;;41.65;20.95;;;;;;;-3.26;84.31;102287.81;4983084;28;20026;-86
2022/03/06 05:57:31;;;;;;;35.75;20.00;;;;;;;-3.22;84.29;102291.41;4976642;28;20201;-86
2022/03/06 05:59:57;;;;;;;40.05;20.98;;;;;;;-3.19;84.70;102299.31;4991669;28;20113;-86
2022/03/06 06:02:23;;;;;;;39.67;21.58;;;;;;;-3.28;83.98;102292.13;4989657;28;20037;-85
2022/03/06 06:04:49;;;;;;;41.40;21.92;;;;;;;-3.22;84.20;102300.09;4988366;28;20030;-84
2022/03/06 06:07:14;;;;;;;39.78;21.15;;;;;;;-3.29;84.00;102296.44;4978153;28;20456;-86
2022/03/06 06:09:40;;;;;;;42.72;21.30;;;;;;;-3.32;84.52;102292.88;4990226;28;20443;-86
2022/03/06 06:12:06;;;;;;;39.60;21.17;;;;;;;-3.21;84.45;102312.31;4988157;28;20053;-85
2022/03/06 06:14:31;;;;;;;41.88;22.02;;;;;;;-3.22;84.27;102309.63;4985140;28;20065;-85
2022/03/06 06:16:57;;;;;;;40.42;21.13;;;;;;;-3.28;84.25;102297.34;4984873;28;20030;-86
2022/03/06 06:19:22;;;;;;;37.67;20.90;;;;;;;-3.25;84.66;102320.88;4989419;28;20039;-86
2022/03/06 06:21:47;;;;;;;38.17;20.70;;;;;;;-3.24;84.25;102322.63;4990214;28;20096;-86
2022/03/06 06:24:14;;;;;;;40.10;21.27;;;;;;;-3.20;84.39;102334.00;4985614;28;20030;-85
2022/03/06 06:26:40;;;;;;;41.60;20.67;;;;;;;-3.22;84.66;102336.56;4986345;28;20487;-85
2022/03/06 06:29:06;;;;;;;41.60;21.38;;;;;;;-3.22;84.56;102335.69;4972424;28;20057;-86
2022/03/06 06:31:31;;;;;;;38.83;21.02;;;;;;;-3.24;84.26;102338.25;4990179;28;20034;-86
2022/03/06 06:33:57;;;;;;;39.03;21.73;;;;;;;-3.18;84.34;102341.00;4988509;28;20093;-86
2022/03/06 06:36:22;;;;;;;42.80;22.20;;;;;;;-3.23;84.69;102337.41;4974404;28;20396;-86
2022/03/06 06:38:48;;;;;;;39.85;22.17;;;;;;;-3.16;84.10;102344.56;4977000;28;20035;-86
2022/03/06 06:41:14;;;;;;;38.28;21.60;;;;;;;-3.16;84.27;102341.97;4974787;28;20037;-86
2022/03/06 06:43:40;;;;;;;38.88;22.25;;;;;;;-3.10;84.09;102347.34;4988778;28;20483;-86
2022/03/06 06:46:05;;;;;;;38.92;21.98;;;;;;;-3.10;83.92;102342.13;4987949;28;20026;-86
2022/03/06 06:48:30;;;;;;;40.95;21.92;;;;;;;-3.05;83.90;102340.56;4985764;28;20038;-85
2022/03/06 06:50:55;;;;;;;35.92;20.15;;;;;;;-2.97;83.87;102345.97;4984239;28;20571;-85
2022/03/06 06:53:21;;;;;;;42.05;23.08;;;;;;;-2.87;83.79;102344.53;4987321;28;20101;-86
2022/03/06 06:55:46;;;;;;;41.90;22.48;;;;;;;-2.74;83.29;102354.44;4988501;28;20022;-86
2022/03/06 06:58:11;;;;;;;39.10;22.10;;;;;;;-2.64;82.53;102348.63;4978925;28;20057;-85
2022/03/06 07:00:37;;;;;;;39.17;21.55;;;;;;;-2.53;82.49;102365.44;4985291;28;20184;-86
2022/03/06 07:03:02;;;;;;;36.63;22.15;;;;;;;-2.56;82.14;102357.53;4974389;28;20427;-86
2022/03/06 07:05:27;;;;;;;38.17;21.40;;;;;;;-2.52;82.03;102372.44;4979622;28;20026;-86
2022/03/06 07:07:53;;;;;;;36.83;20.35;;;;;;;-2.54;82.00;102363.69;4987488;28;20037;-87
2022/03/06 07:10:19;;;;;;;40.28;20.42;;;;;;;-2.56;81.76;102360.16;4979752;28;20464;-88
2022/03/06 07:12:51;;;;;;;39.40;20.50;;;;;;;-2.54;81.60;102361.09;4986425;28;20054;-86
2022/03/06 07:15:16;;;;;;;36.70;21.00;;;;;;;-2.48;81.94;102367.31;4971486;28;20126;-86
2022/03/06 07:17:42;;;;;;;36.47;20.15;;;;;;;-2.51;81.61;102358.56;4983335;28;20097;-86
2022/03/06 07:20:08;;;;;;;36.95;20.10;;;;;;;-2.44;81.67;102372.63;4981724;28;20133;-86
2022/03/06 07:22:34;;;;;;;34.80;20.95;;;;;;;-2.42;81.10;102367.50;4975927;28;20042;-86
2022/03/06 07:25:00;;;;;;;37.72;20.98;;;;;;;-2.38;81.24;102369.31;4979197;28;20471;-87
2022/03/06 07:27:25;;;;;;;36.58;20.95;;;;;;;-2.46;81.54;102347.38;4988694;28;20456;-87
2022/03/06 07:29:50;;;;;;;38.80;21.13;;;;;;;-2.34;81.22;102365.94;4989194;28;20367;-87
2022/03/06 07:32:16;;;;;;;35.17;20.48;;;;;;;-2.28;80.81;102373.94;4981367;28;20034;-88
2022/03/06 07:34:42;;;;;;;34.15;20.13;;;;;;;-2.19;80.69;102378.50;4976951;28;20058;-86
2022/03/06 07:37:07;;;;;;;34.13;20.95;;;;;;;-2.13;80.28;102381.25;4984473;28;20030;-86
2022/03/06 07:39:33;;;;;;;36.05;20.50;;;;;;;-2.09;80.37;102391.84;4979838;28;20099;-86
2022/03/06 07:41:58;;;;;;;34.78;20.20;;;;;;;-2.04;80.22;102392.84;4982084;28;20030;-86
2022/03/06 07:44:23;;;;;;;38.03;20.73;;;;;;;-1.98;79.94;102392.09;4985085;28;20034;-86
2022/03/06 07:46:48;;;;;;;33.05;19.90;;;;;;;-1.93;79.93;102393.09;4981710;28;20039;-86
2022/03/06 07:49:14;;;;;;;38.55;21.85;;;;;;;-1.86;79.84;102400.25;4981823;28;20084;-86
2022/03/06 07:51:39;;;;;;;33.85;20.38;;;;;;;-1.80;79.61;102402.09;4987555;28;20130;-87
2022/03/06 07:54:07;;;;;;;36.72;20.38;;;;;;;-1.78;79.65;102406.53;4984893;28;20319;-87
2022/03/06 07:56:32;;;;;;;35.42;20.45;;;;;;;-1.68;78.78;102415.47;4975986;28;20034;-88
2022/03/06 07:58:58;;;;;;;35.40;19.15;;;;;;;-1.72;78.99;102404.91;4988376;28;20030;-87
2022/03/06 08:01:23;;;;;;;34.83;20.27;;;;;;;-1.58;78.33;102419.19;4987552;28;20034;-87
2022/03/06 08:03:48;;;;;;;34.22;20.33;;;;;;;-1.52;78.78;102425.44;4987129;28;20037;-87
2022/03/06 08:06:14;;;;;;;37.78;21.48;;;;;;;-1.51;78.14;102414.13;4982634;28;20034;-87
2022/03/06 08:08:39;;;;;;;36.70;19.90;;;;;;;-1.38;78.39;102431.00;4970100;28;20042;-87
2022/03/06 08:11:04;;;;;;;33.20;20.88;;;;;;;-1.33;77.95;102428.50;4970137;28;20062;-87
2022/03/06 08:13:30;;;;;;;32.30;20.17;;;;;;;-1.24;77.43;102431.31;4971152;28;20480;-88
2022/03/06 08:15:55;;;;;;;33.03;20.08;;;;;;;-1.19;77.26;102431.44;4981609;28;20120;-87
2022/03/06 08:18:20;;;;;;;33.03;19.58;;;;;;;-1.14;77.17;102433.28;4978972;28;20034;-88
2022/03/06 08:20:46;;;;;;;31.45;18.92;;;;;;;-1.08;76.24;102440.41;4977998;28;20638;-88
2022/03/06 08:23:11;;;;;;;30.13;19.17;;;;;;;-1.03;76.43;102430.91;4986166;28;20046;-87
2022/03/06 08:25:36;;;;;;;34.50;21.02;;;;;;;-1.01;76.39;102431.81;4987972;28;20034;-88
2022/03/06 08:28:02;;;;;;;31.38;19.58;;;;;;;-0.93;76.04;102434.59;4987057;28;20026;-87
2022/03/06 08:30:27;;;;;;;29.95;18.45;;;;;;;-0.86;75.29;102437.41;4988266;28;20034;-88
2022/03/06 08:32:52;;;;;;;33.50;19.38;;;;;;;-0.78;75.55;102441.06;4988937;28;20369;-87
2022/03/06 08:35:18;;;;;;;34.42;20.08;;;;;;;-0.76;75.50;102433.22;4971326;28;20495;-87
2022/03/06 08:37:43;;;;;;;34.72;19.55;;;;;;;-0.65;74.23;102433.47;4979407;28;20030;-88
2022/03/06 08:40:08;;;;;;;34.53;20.05;;;;;;;-0.58;74.47;102444.09;4986517;28;20042;-86
2022/03/06 08:42:34;;;;;;;30.40;19.15;;;;;;;-0.44;74.54;102448.72;4972793;28;20041;-88
2022/03/06 08:44:59;;;;;;;31.48;19.48;;;;;;;-0.41;73.93;102440.94;4978932;28;20031;-87
2022/03/06 08:47:24;;;;;;;29.67;19.33;;;;;;;-0.26;73.55;102454.31;4971665;28;20042;-87
2022/03/06 08:49:50;;;;;;;33.15;19.45;;;;;;;-0.15;72.51;102451.91;4970123;28;20031;-87
2022/03/06 08:52:15;;;;;;;33.72;19.63;;;;;;;-0.10;71.22;102447.63;4987197;28;20026;-87
2022/03/06 08:54:40;;;;;;;26.73;17.60;;;;;;;0.16;71.48;102456.84;4982621;28;20065;-87
2022/03/06 08:57:06;;;;;;;25.50;16.65;;;;;;;0.54;70.45;102442.63;4978211;28;20401;-88
2022/03/06 08:59:31;;;;;;;27.95;17.63;;;;;;;1.35;67.61;102449.06;4986425;28;20087;-87
2022/03/06 09:01:56;;;;;;;29.50;17.83;;;;;;;2.33;64.78;102448.34;4988576;28;20026;-87
2022/03/06 09:04:24;;;;;;;28.85;17.00;;;;;;;3.58;61.75;102443.00;4985016;28;20034;-89
2022/03/06 09:06:50;;;;;;;24.83;16.48;;;;;;;4.68;58.18;102445.78;4986954;28;20145;-88
2022/03/06 09:09:15;;;;;;;26.55;16.42;;;;;;;5.50;54.85;102434.13;4988876;28;20527;-89
2022/03/06 09:11:41;;;;;;;22.05;14.98;;;;;;;6.18;52.67;102439.03;4986993;28;20074;-85
2022/03/06 09:14:07;;;;;;;22.95;14.13;;;;;;;6.65;50.35;102437.81;4985519;28;20035;-91
2022/03/06 09:16:32;;;;;;;27.02;15.40;;;;;;;7.19;48.54;102443.41;4986327;28;20025;-91
2022/03/06 09:18:58;;;;;;;23.52;15.38;;;;;;;7.71;48.14;102441.00;4983472;28;20018;-92
2022/03/06 09:21:23;;;;;;;21.02;15.32;;;;;;;8.26;46.21;102449.06;4973030;28;20031;-93
2022/03/06 09:23:48;;;;;;;23.35;16.25;;;;;;;8.18;45.10;102443.84;4988380;28;20038;-90
2022/03/06 09:26:14;;;;;;;21.52;16.02;;;;;;;8.02;45.88;102442.34;4983909;28;20038;-88
2022/03/06 09:28:39;;;;;;;24.60;16.20;;;;;;;8.36;45.19;102443.59;4974378;28;20022;-88
2022/03/06 09:31:04;;;;;;;20.58;15.40;;;;;;;8.77;44.17;102454.41;4978114;28;20026;-86
2022/03/06 09:33:29;;;;;;;21.05;15.68;;;;;;;8.85;42.43;102453.38;4981280;28;20035;-87
2022/03/06 09:35:55;;;;;;;19.35;15.10;;;;;;;8.82;42.92;102457.88;4976261;28;20068;-87
2022/03/06 09:38:20;;;;;;;21.60;15.13;;;;;;;9.31;42.25;102444.53;4984165;28;20039;-86
2022/03/06 09:40:45;;;;;;;20.00;15.15;;;;;;;9.63;41.31;102449.19;4975818;28;20317;-91
2022/03/06 09:43:16;;;;;;;19.95;14.90;;;;;;;9.77;41.72;102450.69;4989159;28;20031;-86
2022/03/06 09:45:43;;;;;;;21.27;14.88;;;;;;;9.89;40.46;102447.75;4981675;28;20081;-89
2022/03/06 09:48:11;;;;;;;19.67;14.52;;;;;;;10.19;40.40;102452.34;4990415;28;20503;-89
2022/03/06 09:50:36;;;;;;;20.17;14.35;;;;;;;10.86;39.22;102444.50;4991629;28;20073;-89
2022/03/06 09:53:02;;;;;;;18.02;13.85;;;;;;;10.69;38.14;102428.97;4976782;28;20037;-84
2022/03/06 09:55:29;;;;;;;19.42;14.35;;;;;;;11.18;38.03;102429.44;4985116;28;20109;-86
2022/03/06 09:57:56;;;;;;;20.23;14.88;;;;;;;11.57;36.94;102434.53;4990971;28;20034;-86
2022/03/06 10:00:21;;;;;;;22.38;15.88;;;;;;;12.32;36.23;102424.19;4963386;28;20157;-91
2022/03/06 10:02:58;;;;;;;18.20;15.15;;;;;;;12.98;35.23;102437.97;4985227;28;20030;-89
2022/03/06 10:05:36;;;;;;;18.17;15.68;;;;;;;13.42;35.58;102431.06;4989546;28;20027;-91
2022/03/06 10:08:25;;;;;;;20.23;14.73;;;;;;;13.73;33.54;102435.22;4982350;28;20034;-89
2022/03/06 10:11:00;;;;;;;18.92;14.10;;;;;;;13.95;32.88;102431.63;4975752;28;20506;-91
2022/03/06 10:13:42;;;;;;;17.10;13.65;;;;;;;14.26;31.42;102432.22;4978269;28;20049;-91
2022/03/06 10:16:17;;;;;;;17.35;13.18;;;;;;;13.74;31.33;102437.84;5001384;28;20505;-91
2022/03/06 10:18:42;;;;;;;17.00;13.95;;;;;;;13.43;32.14;102432.78;4975996;28;20034;-94
2022/03/06 10:21:15;;;;;;;15.50;13.57;;;;;;;14.08;33.38;102436.50;4993084;28;20365;-93
2022/03/06 10:23:41;;;;;;;17.23;14.02;;;;;;;14.06;30.74;102441.06;4986853;28;20113;-91
2022/03/06 10:26:09;;;;;;;16.40;12.82;;;;;;;14.28;31.19;102441.94;4991363;28;20030;-94
2022/03/06 10:28:49;;;;;;;15.45;13.18;;;;;;;14.86;30.69;102452.91;4992328;28;20041;-92
2022/03/06 10:31:16;;;;;;;17.00;13.70;;;;;;;14.77;30.01;102437.22;4989916;28;20425;-91
2022/03/06 10:34:00;;;;;;;19.10;14.40;;;;;;;14.82;30.41;102450.44;4988128;28;20041;-90
2022/03/06 10:36:36;;;;;;;18.83;13.95;;;;;;;14.99;30.73;102453.25;4984049;28;20038;-90
2022/03/06 10:39:13;;;;;;;17.20;13.70;;;;;;;14.66;29.50;102447.53;4980093;28;20037;-90
2022/03/06 10:41:41;;;;;;;17.15;13.13;;;;;;;14.90;29.54;102443.78;4971540;28;20018;-89
2022/03/06 10:44:08;;;;;;;15.60;12.90;;;;;;;15.17;29.33;102451.53;4973627;28;20027;-92
2022/03/06 10:46:34;;;;;;;16.02;12.70;;;;;;;15.63;28.49;102444.97;4971520;28;20094;-88
2022/03/06 10:49:12;;;;;;;15.82;12.75;;;;;;;16.09;28.53;102442.81;4978682;28;20117;-91
2022/03/06 10:51:43;;;;;;;15.55;12.90;;;;;;;16.43;27.34;102441.16;4973669;28;20030;-91
2022/03/06 10:54:09;;;;;;;15.57;12.70;;;;;;;16.11;27.32;102442.75;4978419;28;20035;-91
2022/03/06 10:56:35;;;;;;;16.90;13.25;;;;;;;15.93;27.33;102437.31;4971870;28;20062;-90
2022/03/06 10:59:03;;;;;;;14.88;13.05;;;;;;;15.33;28.11;102441.88;4989558;28;20065;-91
2022/03/06 11:01:29;;;;;;;15.48;12.65;;;;;;;15.77;28.03;102433.63;4989870;28;20041;-92
2022/03/06 11:04:00;;;;;;;14.18;12.30;;;;;;;15.73;28.24;102444.56;4981755;28;20432;-91
2022/03/06 11:06:27;;;;;;;15.55;12.32;;;;;;;15.77;27.46;102436.31;4972206;28;20443;-88